Time;durP1;ratioP1;P1;durP2;ratioP2;P2;SDS_P1;SDS_P2;PMS_P1;PMS_P2;Temp;Humidity;BMP_temperature;BMP_pressure;BME280_temperature;BME280_humidity;BME280_pressure;Samples;Min_cycle;Max_cycle;Signal;HPM_P1;HPM_P2
2022/12/08 00:01:14;;;;;;;40.33;21.85;;;1.50;99.90;;;;;;5016657;28;20045;-63
2022/12/08 00:03:42;;;;;;;43.70;24.60;;;1.50;99.90;;;;;;5016138;28;20052;-65
2022/12/08 00:09:28;;;;;;;41.95;25.77;;;1.50;99.90;;;;;;5013249;28;20939;-65
2022/12/08 00:12:11;;;;;;;49.22;25.92;;;1.50;99.90;;;;;;5013930;28;20228;-66
2022/12/08 00:14:41;;;;;;;47.45;25.08;;;1.50;99.90;;;;;;5014463;28;20041;-65
2022/12/08 00:17:10;;;;;;;47.05;25.50;;;1.50;99.90;;;;;;5016708;28;20168;-64
2022/12/08 00:19:38;;;;;;;48.22;26.75;;;1.50;99.90;;;;;;5014997;28;20338;-64
2022/12/08 00:22:06;;;;;;;43.75;24.95;;;1.50;99.90;;;;;;5016585;28;20046;-64
2022/12/08 00:24:38;;;;;;;41.30;23.88;;;1.50;99.90;;;;;;5015784;28;20555;-64
2022/12/08 00:27:07;;;;;;;44.70;23.90;;;1.50;99.90;;;;;;5015593;28;20052;-64
2022/12/08 00:29:34;;;;;;;40.45;22.85;;;1.50;99.90;;;;;;5016514;28;20588;-63
2022/12/08 00:32:01;;;;;;;;;;;1.50;99.90;;;;;;5015812;28;20045;-64
2022/12/08 00:34:29;;;;;;;53.70;28.73;;;1.50;99.90;;;;;;5013633;28;19932;-64
2022/12/08 00:36:55;;;;;;;44.33;25.00;;;1.50;99.90;;;;;;5013008;28;20149;-63
2022/12/08 00:39:22;;;;;;;;;;;1.50;99.90;;;;;;5014740;28;20048;-65
2022/12/08 00:44:34;;;;;;;49.58;26.73;;;1.50;99.90;;;;;;5014290;28;20051;-64
2022/12/08 00:47:01;;;;;;;;;;;1.50;99.90;;;;;;5015253;28;20045;-64
2022/12/08 00:49:28;;;;;;;48.78;27.25;;;1.50;99.90;;;;;;5013824;28;19931;-64
2022/12/08 00:51:54;;;;;;;;;;;1.50;99.90;;;;;;5013918;28;20053;-65
2022/12/08 00:54:22;;;;;;;45.85;25.98;;;1.50;99.90;;;;;;5042699;28;19972;-65
2022/12/08 00:56:49;;;;;;;52.45;28.67;;;1.50;99.90;;;;;;5012114;28;20132;-64
2022/12/08 00:59:15;;;;;;;;;;;1.50;99.90;;;;;;5015586;28;20076;-64
2022/12/08 01:01:43;;;;;;;55.40;28.27;;;1.50;99.90;;;;;;5012395;28;19973;-65
2022/12/08 01:04:16;;;;;;;51.88;28.27;;;1.50;99.90;;;;;;5013349;28;20120;-65
2022/12/08 01:06:43;;;;;;;59.88;31.55;;;1.50;99.90;;;;;;5016642;28;20048;-64
2022/12/08 01:09:11;;;;;;;48.60;26.77;;;1.50;99.90;;;;;;5014713;28;20144;-66
2022/12/08 01:11:38;;;;;;;48.78;27.20;;;1.50;99.90;;;;;;5015325;28;20790;-65
2022/12/08 01:14:04;;;;;;;48.85;28.50;;;1.50;99.90;;;;;;5014188;28;20684;-65
2022/12/08 01:16:32;;;;;;;;;;;1.50;99.90;;;;;;5015210;28;20041;-64
2022/12/08 01:19:00;;;;;;;53.55;27.92;;;1.50;99.90;;;;;;5014077;28;19931;-64
2022/12/08 01:21:27;;;;;;;51.05;28.30;;;1.50;99.90;;;;;;5011890;28;20539;-63
2022/12/08 01:23:54;;;;;;;51.55;27.83;;;1.50;99.90;;;;;;5014409;28;20048;-63
2022/12/08 01:26:21;;;;;;;51.47;27.52;;;1.50;99.90;;;;;;5012128;28;20053;-65
2022/12/08 01:28:48;;;;;;;54.20;29.02;;;1.50;99.90;;;;;;5010800;28;20045;-67
2022/12/08 01:31:18;;;;;;;54.42;27.48;;;1.50;99.90;;;;;;5013875;28;20034;-65
2022/12/08 01:33:45;;;;;;;49.97;28.10;;;1.50;99.90;;;;;;5013480;28;20056;-64
2022/12/08 01:36:18;;;;;;;46.78;27.10;;;1.50;99.90;;;;;;5011983;28;20333;-65
2022/12/08 01:38:45;;;;;;;54.67;29.42;;;1.60;99.90;;;;;;5012304;28;20072;-65
2022/12/08 01:41:19;;;;;;;53.38;29.77;;;1.60;99.90;;;;;;5014564;28;20067;-66
2022/12/08 01:43:57;;;;;;;45.58;27.75;;;1.60;99.90;;;;;;5027640;28;20310;-65
2022/12/08 01:46:25;;;;;;;46.15;24.90;;;1.60;99.90;;;;;;5008622;28;20049;-65
2022/12/08 01:49:00;;;;;;;53.20;27.38;;;1.60;99.90;;;;;;5014652;28;20041;-65
2022/12/08 01:51:29;;;;;;;49.10;28.48;;;1.60;99.90;;;;;;5012087;28;20650;-65
2022/12/08 01:53:56;;;;;;;46.38;26.52;;;1.60;99.90;;;;;;5012448;28;20045;-65
2022/12/08 01:56:40;;;;;;;48.17;26.75;;;1.60;99.90;;;;;;5012504;28;20076;-65
2022/12/08 01:59:09;;;;;;;45.65;24.70;;;1.50;99.90;;;;;;5011430;28;20151;-65
2022/12/08 02:01:36;;;;;;;56.22;28.88;;;1.50;99.90;;;;;;5012518;28;20060;-65
2022/12/08 02:04:04;;;;;;;46.22;25.77;;;1.50;99.90;;;;;;5009508;28;20077;-65
2022/12/08 02:06:35;;;;;;;47.85;25.80;;;1.50;99.90;;;;;;5016408;28;20130;-66
2022/12/08 02:09:04;;;;;;;48.95;27.33;;;1.50;99.90;;;;;;5014090;28;20064;-65
2022/12/08 02:11:30;;;;;;;47.83;26.60;;;1.40;99.90;;;;;;5011778;28;20057;-65
2022/12/08 02:13:59;;;;;;;;;;;1.50;99.90;;;;;;5012812;28;20059;-65
2022/12/08 02:16:58;;;;;;;52.63;28.13;;;1.50;99.90;;;;;;5012609;28;19924;-65
2022/12/08 02:19:49;;;;;;;60.97;30.15;;;1.40;99.90;;;;;;4997184;28;20623;-66
2022/12/08 02:22:44;;;;;;;51.63;28.80;;;1.50;99.90;;;;;;5014396;28;20124;-66
2022/12/08 02:25:25;;;;;;;53.05;27.88;;;1.50;99.90;;;;;;5011566;28;20439;-65
2022/12/08 02:28:11;;;;;;;58.53;29.95;;;1.50;99.90;;;;;;5014543;28;20049;-64
2022/12/08 02:30:54;;;;;;;59.17;31.73;;;1.50;99.90;;;;;;5010849;28;20077;-66
2022/12/08 02:33:42;;;;;;;54.33;30.85;;;1.50;99.90;;;;;;5012743;28;20639;-65
2022/12/08 02:36:45;;;;;;;54.95;29.00;;;1.50;99.90;;;;;;5013548;28;20338;-65
2022/12/08 02:39:33;;;;;;;51.70;28.33;;;1.50;99.90;;;;;;5010895;28;20057;-64
2022/12/08 02:42:18;;;;;;;53.35;27.42;;;1.50;99.90;;;;;;5011597;28;20053;-64
2022/12/08 02:44:54;;;;;;;53.58;29.58;;;1.50;99.90;;;;;;5009944;28;20033;-64
2022/12/08 02:47:23;;;;;;;51.20;27.98;;;1.50;99.90;;;;;;5013523;28;20065;-65
2022/12/08 02:49:49;;;;;;;56.20;29.67;;;1.50;99.90;;;;;;5012641;28;20120;-65
2022/12/08 02:52:16;;;;;;;53.47;29.17;;;1.50;99.90;;;;;;5013915;28;20072;-65
2022/12/08 02:54:50;;;;;;;53.95;28.58;;;1.50;99.90;;;;;;5009755;28;20149;-66
2022/12/08 02:57:53;;;;;;;56.90;29.80;;;1.50;99.90;;;;;;5009965;28;20052;-65
2022/12/08 03:00:23;;;;;;;57.05;32.30;;;1.50;99.90;;;;;;5012365;28;20057;-64
2022/12/08 03:03:11;;;;;;;55.70;28.20;;;1.50;99.90;;;;;;5010229;28;20499;-65
2022/12/08 03:05:48;;;;;;;59.72;32.50;;;1.50;99.90;;;;;;5013860;28;20533;-65
2022/12/08 03:08:15;;;;;;;;;;;1.50;99.90;;;;;;5013949;28;20144;-66
2022/12/08 03:11:23;;;;;;;53.60;29.98;;;1.50;99.90;;;;;;5008707;28;19956;-64
2022/12/08 03:13:53;;;;;;;58.03;30.95;;;1.50;99.90;;;;;;4973512;28;20690;-65
2022/12/08 03:16:26;;;;;;;57.53;31.17;;;1.50;99.90;;;;;;5028085;28;20037;-65
2022/12/08 03:19:09;;;;;;;50.90;28.38;;;1.50;99.90;;;;;;5013963;28;20210;-64
2022/12/08 03:21:37;;;;;;;59.17;29.52;;;1.50;99.90;;;;;;5012040;28;20045;-65
2022/12/08 03:24:08;;;;;;;56.25;29.77;;;1.50;99.90;;;;;;5013246;28;20045;-65
2022/12/08 03:26:50;;;;;;;52.35;29.92;;;1.50;99.90;;;;;;5010987;28;20045;-65
2022/12/08 03:29:17;;;;;;;54.22;28.75;;;1.50;99.90;;;;;;5013266;28;20055;-64
2022/12/08 03:31:52;;;;;;;55.28;29.77;;;1.50;99.90;;;;;;5015525;28;20559;-64
2022/12/08 03:34:22;;;;;;;51.78;27.63;;;1.50;99.90;;;;;;5019758;28;20293;-64
2022/12/08 03:36:48;;;;;;;56.88;31.42;;;1.50;99.90;;;;;;5010322;28;20862;-64
2022/12/08 03:39:15;;;;;;;;;;;1.50;99.90;;;;;;5016175;28;20056;-62
2022/12/08 03:41:42;;;;;;;62.63;31.52;;;1.50;99.90;;;;;;5015103;28;20027;-64
2022/12/08 03:44:09;;;;;;;;;;;1.50;99.90;;;;;;5013674;28;20240;-64
2022/12/08 03:46:35;;;;;;;57.25;29.27;;;1.50;99.90;;;;;;5014919;28;19924;-66
2022/12/08 03:49:02;;;;;;;58.50;31.60;;;1.50;99.90;;;;;;5013822;28;20045;-63
2022/12/08 03:51:29;;;;;;;59.85;31.88;;;1.50;99.90;;;;;;5015132;28;20048;-64
2022/12/08 03:53:56;;;;;;;52.53;30.30;;;1.50;99.90;;;;;;5014892;28;20312;-65
2022/12/08 03:56:27;;;;;;;;;;;1.50;99.90;;;;;;5015821;28;20819;-64
2022/12/08 03:58:54;;;;;;;61.38;31.95;;;1.50;99.90;;;;;;5012904;28;19924;-65
2022/12/08 04:01:22;;;;;;;66.70;34.70;;;1.50;99.90;;;;;;5015466;28;20158;-64
2022/12/08 04:03:49;;;;;;;62.03;33.83;;;1.50;99.90;;;;;;5012176;28;20041;-66
2022/12/08 04:06:16;;;;;;;;;;;1.40;99.90;;;;;;5012612;28;20045;-63
2022/12/08 04:08:43;;;;;;;58.83;31.07;;;1.40;99.90;;;;;;5018979;28;20307;-66
2022/12/08 04:11:10;;;;;;;;;;;1.40;99.90;;;;;;5015303;28;21329;-66
2022/12/08 04:13:38;;;;;;;59.28;29.55;;;1.40;99.90;;;;;;5015310;28;19932;-66
2022/12/08 04:16:05;;;;;;;51.78;28.67;;;1.40;99.90;;;;;;5020356;28;20064;-66
2022/12/08 04:18:34;;;;;;;67.68;33.38;;;1.40;99.90;;;;;;5014432;28;20147;-64
2022/12/08 04:21:01;;;;;;;58.30;32.70;;;1.40;99.90;;;;;;5011310;28;20954;-64
2022/12/08 04:23:28;;;;;;;57.38;32.72;;;1.40;99.90;;;;;;5014944;28;20136;-64
2022/12/08 04:25:54;;;;;;;;;;;1.40;99.90;;;;;;5017115;28;20098;-64
2022/12/08 04:28:21;;;;;;;55.08;29.40;;;1.40;99.90;;;;;;5013363;28;20426;-64
2022/12/08 04:30:48;;;;;;;;;;;1.40;99.90;;;;;;5013001;28;20522;-64
2022/12/08 04:33:15;;;;;;;57.00;30.53;;;1.40;99.90;;;;;;5012621;28;19994;-64
2022/12/08 04:35:42;;;;;;;62.67;33.10;;;1.40;99.90;;;;;;5012092;28;20944;-64
2022/12/08 04:38:09;;;;;;;;;;;1.40;99.90;;;;;;5014199;28;20048;-63
2022/12/08 04:40:35;;;;;;;63.05;33.65;;;1.40;99.90;;;;;;5012614;28;19925;-65
2022/12/08 04:43:02;;;;;;;59.63;31.13;;;1.40;99.90;;;;;;5012024;28;20079;-63
2022/12/08 04:45:29;;;;;;;55.00;28.95;;;1.40;99.90;;;;;;5012097;28;20042;-65
2022/12/08 04:48:00;;;;;;;55.78;30.83;;;1.40;99.90;;;;;;5012413;28;20049;-64
2022/12/08 04:50:27;;;;;;;57.78;31.85;;;1.40;99.90;;;;;;5012829;28;20088;-65
2022/12/08 04:52:54;;;;;;;52.92;28.50;;;1.30;99.90;;;;;;5014501;28;20045;-64
2022/12/08 04:55:21;;;;;;;;;;;1.40;99.90;;;;;;5014978;28;20120;-64
2022/12/08 04:57:47;;;;;;;54.35;30.00;;;1.30;99.90;;;;;;5013068;28;20979;-65
2022/12/08 05:00:15;;;;;;;51.78;28.67;;;1.30;99.90;;;;;;5013825;28;20045;-64
2022/12/08 05:02:41;;;;;;;58.22;31.15;;;1.30;99.90;;;;;;5013861;28;20068;-65
2022/12/08 05:05:09;;;;;;;58.40;32.13;;;1.30;99.90;;;;;;5012761;28;20045;-64
2022/12/08 05:07:36;;;;;;;53.85;28.85;;;1.30;99.90;;;;;;5014236;28;20536;-63
2022/12/08 05:10:03;;;;;;;58.00;30.10;;;1.30;99.90;;;;;;5029091;28;20044;-64
2022/12/08 05:12:30;;;;;;;60.88;30.25;;;1.30;99.90;;;;;;5014052;28;20690;-63
2022/12/08 05:14:57;;;;;;;;;;;1.30;99.90;;;;;;5014837;28;20083;-63
2022/12/08 05:17:24;;;;;;;60.42;32.53;;;1.30;99.90;;;;;;5014461;28;19926;-63
2022/12/08 05:19:50;;;;;;;;;;;1.30;99.90;;;;;;5014613;28;20041;-64
2022/12/08 05:22:17;;;;;;;51.72;29.55;;;1.20;99.90;;;;;;5010521;28;19950;-63
2022/12/08 05:24:44;;;;;;;53.88;29.02;;;1.30;99.90;;;;;;5009324;28;20040;-63
2022/12/08 05:27:13;;;;;;;58.88;32.25;;;1.30;99.90;;;;;;5014514;28;20052;-64
2022/12/08 05:29:40;;;;;;;;;;;1.20;99.90;;;;;;5021761;28;20049;-64
2022/12/08 05:32:07;;;;;;;59.22;31.13;;;1.20;99.90;;;;;;5012166;28;19929;-63
2022/12/08 05:34:34;;;;;;;59.45;31.30;;;1.20;99.90;;;;;;5011293;28;20052;-63
2022/12/08 05:37:01;;;;;;;57.17;30.38;;;1.20;99.90;;;;;;5016115;28;20143;-65
2022/12/08 05:39:27;;;;;;;;;;;1.20;99.90;;;;;;5011261;28;20586;-65
2022/12/08 05:41:54;;;;;;;62.47;33.47;;;1.20;99.90;;;;;;5014058;28;19931;-64
2022/12/08 05:44:21;;;;;;;;;;;1.20;99.90;;;;;;5014517;28;20049;-65
2022/12/08 05:46:47;;;;;;;66.78;31.52;;;1.20;99.90;;;;;;5012450;28;20662;-66
2022/12/08 05:49:14;;;;;;;49.38;27.38;;;1.20;99.90;;;;;;5012213;28;20072;-65
2022/12/08 05:51:41;;;;;;;;;;;1.20;99.90;;;;;;5015151;28;20049;-65
2022/12/08 05:54:08;;;;;;;63.08;32.25;;;1.20;99.90;;;;;;5009616;28;19931;-65
2022/12/08 05:56:35;;;;;;;59.80;32.78;;;1.10;99.90;;;;;;5011016;28;20045;-65
2022/12/08 05:59:05;;;;;;;58.03;30.27;;;1.20;99.90;;;;;;5012752;28;20074;-65
2022/12/08 06:01:33;;;;;;;59.13;31.58;;;1.10;99.90;;;;;;5010325;28;20563;-64
2022/12/08 06:04:01;;;;;;;69.63;36.17;;;1.20;99.90;;;;;;5011143;28;20049;-65
2022/12/08 06:06:28;;;;;;;68.95;32.03;;;1.20;99.90;;;;;;5013761;28;20041;-65
2022/12/08 06:08:55;;;;;;;56.05;31.58;;;1.20;99.90;;;;;;5014370;28;20048;-65
2022/12/08 06:11:23;;;;;;;;;;;1.20;99.90;;;;;;5010863;28;20056;-65
2022/12/08 06:13:50;;;;;;;;;;;1.20;99.90;;;;;;5009489;28;19929;-65
2022/12/08 06:16:18;;;;;;;59.67;28.77;;;1.20;99.90;;;;;;5011588;28;20480;-65
2022/12/08 06:18:45;;;;;;;72.30;36.05;;;1.20;99.90;;;;;;5012212;28;20045;-66
2022/12/08 06:21:13;;;;;;;61.55;31.48;;;1.20;99.90;;;;;;5014739;28;20037;-68
2022/12/08 06:23:41;;;;;;;61.05;30.45;;;1.20;99.90;;;;;;5012311;28;20047;-67
2022/12/08 06:26:11;;;;;;;65.22;32.17;;;1.20;99.90;;;;;;5010485;28;20041;-67
2022/12/08 06:28:39;;;;;;;60.67;32.88;;;1.20;99.90;;;;;;5014040;28;20128;-67
2022/12/08 06:31:08;;;;;;;66.75;33.15;;;1.20;99.90;;;;;;5012742;28;20048;-65
2022/12/08 06:33:36;;;;;;;64.38;33.75;;;1.20;99.90;;;;;;5011048;28;20285;-55
2022/12/08 06:36:04;;;;;;;61.15;30.15;;;1.20;99.90;;;;;;5014548;28;20055;-56
2022/12/08 06:38:31;;;;;;;62.03;33.35;;;1.20;99.90;;;;;;5011415;28;20625;-57
2022/12/08 06:40:58;;;;;;;60.10;31.70;;;1.20;99.90;;;;;;5013033;28;20065;-53
2022/12/08 06:43:25;;;;;;;64.68;33.20;;;1.20;99.90;;;;;;5010530;28;20042;-54
2022/12/08 06:45:52;;;;;;;64.93;33.00;;;1.20;99.90;;;;;;5041161;28;20041;-53
2022/12/08 06:48:19;;;;;;;65.97;33.60;;;1.20;99.90;;;;;;5009169;28;20521;-54
2022/12/08 06:50:46;;;;;;;;;;;1.20;99.90;;;;;;5011940;28;20041;-55
2022/12/08 06:53:14;;;;;;;77.00;36.78;;;1.20;99.90;;;;;;5020307;28;20350;-55
2022/12/08 06:55:45;;;;;;;66.18;33.95;;;1.20;99.90;;;;;;5010183;28;20053;-53
2022/12/08 06:58:27;;;;;;;64.70;31.27;;;1.20;99.90;;;;;;5013357;28;20060;-56
2022/12/08 07:00:54;;;;;;;;;;;1.20;99.90;;;;;;5013067;28;20041;-56
2022/12/08 07:03:21;;;;;;;61.22;30.02;;;1.20;99.90;;;;;;5011976;28;19931;-53
2022/12/08 07:05:47;;;;;;;;;;;1.20;99.90;;;;;;5014078;28;20048;-55
2022/12/08 07:08:14;;;;;;;62.03;29.25;;;1.20;99.90;;;;;;5011411;28;19924;-57
2022/12/08 07:10:42;;;;;;;55.03;29.65;;;1.20;99.90;;;;;;5012165;28;20042;-56
2022/12/08 07:13:08;;;;;;;55.03;30.77;;;1.20;99.90;;;;;;5011468;28;20412;-55
2022/12/08 07:15:35;;;;;;;52.42;27.45;;;1.20;99.90;;;;;;5014877;28;20111;-53
2022/12/08 07:18:02;;;;;;;55.47;28.65;;;1.20;99.90;;;;;;5016920;28;20910;-57
2022/12/08 07:20:29;;;;;;;64.22;31.50;;;1.20;99.90;;;;;;5015586;28;20072;-56
2022/12/08 07:22:56;;;;;;;;;;;1.20;99.90;;;;;;5016566;28;20040;-56
2022/12/08 07:25:22;;;;;;;45.50;24.83;;;1.20;99.90;;;;;;5043821;28;19924;-55
2022/12/08 07:27:50;;;;;;;;;;;1.20;99.90;;;;;;5017259;28;20037;-56
2022/12/08 07:30:17;;;;;;;57.33;28.20;;;1.20;99.90;;;;;;5015754;28;20227;-57
2022/12/08 07:32:44;;;;;;;51.97;26.83;;;1.20;99.90;;;;;;5014205;28;20040;-57
2022/12/08 07:35:11;;;;;;;53.10;27.90;;;1.20;99.90;;;;;;5016396;28;20513;-56
2022/12/08 07:37:38;;;;;;;54.08;28.88;;;1.30;99.90;;;;;;5014909;28;20061;-55
2022/12/08 07:40:06;;;;;;;54.05;28.08;;;1.30;99.90;;;;;;5013003;28;20049;-55
2022/12/08 07:42:33;;;;;;;51.08;25.67;;;1.30;99.90;;;;;;5013722;28;20053;-54
2022/12/08 07:45:01;;;;;;;55.13;27.80;;;1.30;99.90;;;;;;5014099;28;20033;-53
2022/12/08 07:47:27;;;;;;;51.50;25.42;;;1.40;99.90;;;;;;5018413;28;20037;-54
2022/12/08 07:49:54;;;;;;;;;;;1.40;99.90;;;;;;5015734;28;20604;-56
2022/12/08 07:52:21;;;;;;;50.08;24.75;;;1.40;99.90;;;;;;5014847;28;19924;-55
2022/12/08 07:54:47;;;;;;;44.88;25.33;;;1.40;99.90;;;;;;5015293;28;20041;-56
2022/12/08 07:57:14;;;;;;;;;;;1.40;99.90;;;;;;5013140;28;20052;-55
2022/12/08 07:59:41;;;;;;;41.70;24.52;;;1.50;99.90;;;;;;5015471;28;19925;-54
2022/12/08 08:02:18;;;;;;;51.10;27.75;;;1.50;99.90;;;;;;5012904;28;20497;-54
2022/12/08 08:04:52;;;;;;;50.80;26.98;;;1.50;99.90;;;;;;5015491;28;20137;-53
2022/12/08 08:07:19;;;;;;;50.45;26.92;;;1.50;99.90;;;;;;5014203;28;20571;-56
2022/12/08 08:09:45;;;;;;;;;;;1.50;99.90;;;;;;5014314;28;20043;-56
2022/12/08 08:12:12;;;;;;;47.90;24.65;;;1.50;99.90;;;;;;5016844;28;19928;-54
2022/12/08 08:15:00;;;;;;;50.60;26.23;;;1.60;99.90;;;;;;5012930;28;20745;-56
2022/12/08 08:17:28;;;;;;;46.28;24.50;;;1.60;99.90;;;;;;5020035;28;20140;-54
2022/12/08 08:19:55;;;;;;;56.53;28.85;;;1.60;99.90;;;;;;5014300;28;20511;-51
2022/12/08 08:22:23;;;;;;;;;;;1.70;99.90;;;;;;5012733;28;20490;-53
2022/12/08 08:24:49;;;;;;;46.03;24.75;;;1.70;99.90;;;;;;5012539;28;19924;-56
2022/12/08 08:27:16;;;;;;;47.53;24.70;;;1.70;99.90;;;;;;5013836;28;20076;-54
2022/12/08 08:29:54;;;;;;;48.15;25.35;;;1.70;99.90;;;;;;5006822;28;20535;-62
2022/12/08 08:32:21;;;;;;;43.72;22.88;;;1.80;99.90;;;;;;5011262;28;20033;-63
2022/12/08 08:34:48;;;;;;;;;;;1.80;99.90;;;;;;5012288;28;20129;-55
2022/12/08 08:37:19;;;;;;;39.40;21.40;;;1.80;99.90;;;;;;5008975;28;20649;-61
2022/12/08 08:40:00;;;;;;;38.08;20.70;;;1.90;99.90;;;;;;5013682;28;20049;-60
2022/12/08 08:42:30;;;;;;;37.05;20.63;;;1.90;99.90;;;;;;5026965;28;20053;-53
2022/12/08 08:44:57;;;;;;;;;;;2.00;99.90;;;;;;5010424;28;20041;-54
2022/12/08 08:47:24;;;;;;;33.47;18.75;;;2.00;99.90;;;;;;5008851;28;19956;-60
2022/12/08 08:49:51;;;;;;;32.72;18.90;;;2.10;99.90;;;;;;5011501;28;20041;-58
2022/12/08 08:52:18;;;;;;;;;;;2.10;99.90;;;;;;5009144;28;20083;-54
2022/12/08 08:54:45;;;;;;;30.00;17.30;;;2.10;99.90;;;;;;5014252;28;19968;-55
2022/12/08 08:57:12;;;;;;;;;;;2.10;99.90;;;;;;5009471;28;20516;-51
2022/12/08 08:59:39;;;;;;;32.28;17.52;;;2.20;99.90;;;;;;5012199;28;20011;-53
2022/12/08 09:02:05;;;;;;;;;;;2.20;99.90;;;;;;5014294;28;20041;-53
2022/12/08 09:04:33;;;;;;;;;;;2.20;99.90;;;;;;5015089;28;19956;-53
2022/12/08 09:07:00;;;;;;;25.00;14.88;;;2.20;99.90;;;;;;5010873;28;19971;-54
2022/12/08 09:09:27;;;;;;;25.10;15.07;;;2.20;99.90;;;;;;5029599;28;20048;-55
2022/12/08 09:11:55;;;;;;;;;;;2.20;99.90;;;;;;5013896;28;20899;-55
2022/12/08 09:14:22;;;;;;;27.35;15.50;;;2.20;99.90;;;;;;5014678;28;19925;-55
2022/12/08 09:16:50;;;;;;;25.85;15.00;;;2.30;99.90;;;;;;5015157;28;20184;-51
2022/12/08 09:19:17;;;;;;;26.20;15.07;;;2.30;99.90;;;;;;5008471;28;20045;-55
2022/12/08 09:21:45;;;;;;;23.80;14.57;;;2.30;99.90;;;;;;5008200;28;20153;-50
2022/12/08 09:24:15;;;;;;;;;;;2.40;99.90;;;;;;5008987;28;20045;-49
2022/12/08 09:26:43;;;;;;;29.45;16.10;;;2.40;99.90;;;;;;5010509;28;20515;-54
2022/12/08 09:29:10;;;;;;;22.92;13.85;;;2.50;99.90;;;;;;5014491;28;20841;-52
2022/12/08 09:31:39;;;;;;;25.27;14.55;;;2.50;99.90;;;;;;5013539;28;20071;-52
2022/12/08 09:34:06;;;;;;;20.00;12.35;;;2.50;99.90;;;;;;5014583;28;20072;-53
2022/12/08 09:36:32;;;;;;;21.52;12.35;;;2.60;99.90;;;;;;5009782;28;20049;-52
2022/12/08 09:38:59;;;;;;;;;;;2.60;99.90;;;;;;5010825;28;20053;-52
2022/12/08 09:41:44;;;;;;;20.92;12.93;;;2.60;99.90;;;;;;5014073;28;19924;-50
2022/12/08 09:44:38;;;;;;;19.95;11.80;;;2.60;99.90;;;;;;5009897;28;20726;-52
2022/12/08 09:47:12;;;;;;;21.95;12.50;;;2.70;99.90;;;;;;5012376;28;20051;-50
2022/12/08 09:49:44;;;;;;;23.52;14.07;;;2.70;99.90;;;;;;5012976;28;20751;-50
2022/12/08 09:52:27;;;;;;;20.25;12.50;;;2.70;99.90;;;;;;5012458;28;20878;-50
2022/12/08 09:54:59;;;;;;;24.25;13.93;;;2.70;99.90;;;;;;5014684;28;20049;-51
2022/12/08 09:57:26;;;;;;;27.10;14.68;;;2.80;99.90;;;;;;5010579;28;20156;-49
2022/12/08 09:59:58;;;;;;;22.35;13.55;;;2.80;99.90;;;;;;5015554;28;20127;-50
2022/12/08 10:02:28;;;;;;;21.52;13.32;;;2.80;99.90;;;;;;5011067;28;20480;-54
2022/12/08 10:04:57;;;;;;;21.30;12.77;;;2.90;99.90;;;;;;5017111;28;20140;-53
2022/12/08 10:07:41;;;;;;;20.65;12.10;;;2.90;99.90;;;;;;5012124;28;20034;-54
2022/12/08 10:10:19;;;;;;;24.90;14.25;;;3.00;99.90;;;;;;5013926;28;20037;-54
2022/12/08 10:12:56;;;;;;;23.42;13.52;;;3.10;99.90;;;;;;5013515;28;20245;-53
2022/12/08 10:15:36;;;;;;;21.60;12.55;;;3.20;99.90;;;;;;5015418;28;20052;-52
2022/12/08 10:18:17;;;;;;;23.88;14.55;;;3.30;99.90;;;;;;5013747;28;20041;-54
2022/12/08 10:20:47;;;;;;;21.00;12.80;;;3.40;99.90;;;;;;5009985;28;20049;-52
2022/12/08 10:23:28;;;;;;;25.30;13.27;;;3.60;99.90;;;;;;5011664;28;20065;-53
2022/12/08 10:26:10;;;;;;;19.08;12.63;;;4.00;99.90;;;;;;5012763;28;20916;-53
2022/12/08 10:28:37;;;;;;;18.25;12.57;;;4.50;99.90;;;;;;5011528;28;20124;-53
2022/12/08 10:31:20;;;;;;;24.85;13.10;;;4.70;99.90;;;;;;5013004;28;20116;-51
2022/12/08 10:33:59;;;;;;;25.95;14.55;;;4.90;99.90;;;;;;5010649;28;20050;-54
2022/12/08 10:36:47;;;;;;;23.80;13.57;;;5.20;99.90;;;;;;5010492;28;20049;-53
2022/12/08 10:39:34;;;;;;;19.17;12.20;;;5.50;99.90;;;;;;5012803;28;20462;-51
2022/12/08 10:42:08;;;;;;;20.83;13.23;;;5.70;99.90;;;;;;5015479;28;20571;-52
2022/12/08 10:45:10;;;;;;;20.58;12.30;;;5.90;99.90;;;;;;5010553;28;20041;-54
2022/12/08 10:47:39;;;;;;;21.90;12.60;;;5.90;99.90;;;;;;5013402;28;20052;-53
2022/12/08 10:50:51;;;;;;;18.25;11.63;;;6.00;99.90;;;;;;5014853;28;20048;-54
2022/12/08 10:53:22;;;;;;;21.80;12.80;;;6.00;99.90;;;;;;5000450;28;20430;-54
2022/12/08 10:55:49;;;;;;;24.92;13.57;;;6.10;99.90;;;;;;5014623;28;20053;-53
2022/12/08 10:58:24;;;;;;;20.05;12.38;;;6.20;99.90;;;;;;5024689;28;20118;-53
2022/12/08 11:00:54;;;;;;;19.55;11.98;;;6.30;98.70;;;;;;5016446;28;20051;-53
2022/12/08 11:03:26;;;;;;;20.58;11.75;;;6.50;97.30;;;;;;5015826;28;20041;-54
2022/12/08 11:05:58;;;;;;;18.42;11.70;;;6.60;95.80;;;;;;5018557;28;20072;-57
2022/12/08 11:08:32;;;;;;;22.13;12.57;;;6.80;95.10;;;;;;5017510;28;20154;-53
2022/12/08 11:10:59;;;;;;;;;;;6.90;93.30;;;;;;5017239;28;20037;-52
2022/12/08 11:13:28;;;;;;;24.05;13.32;;;6.90;92.10;;;;;;5016048;28;20027;-51
2022/12/08 11:15:56;;;;;;;20.85;13.20;;;6.90;92.00;;;;;;5024477;28;20056;-55
2022/12/08 11:18:28;;;;;;;19.98;12.75;;;6.80;91.10;;;;;;5015385;28;20045;-53
2022/12/08 11:21:16;;;;;;;20.45;12.30;;;6.70;92.70;;;;;;5016718;28;20360;-52
2022/12/08 11:23:49;;;;;;;19.70;12.23;;;6.70;92.80;;;;;;5016065;28;20653;-53
2022/12/08 11:26:31;;;;;;;18.55;11.65;;;6.80;91.50;;;;;;5018543;28;20087;-54
2022/12/08 11:28:57;;;;;;;22.30;12.90;;;6.80;91.50;;;;;;5014391;28;20063;-53
2022/12/08 11:31:28;;;;;;;;;;;7.00;92.60;;;;;;5014057;28;20129;-53
2022/12/08 11:33:55;;;;;;;23.23;13.80;;;7.10;91.40;;;;;;5028793;28;20181;-52
2022/12/08 11:36:23;;;;;;;;;;;7.30;87.10;;;;;;5018795;28;20131;-55
2022/12/08 11:38:59;;;;;;;20.90;12.55;;;7.50;90.30;;;;;;5015720;28;19929;-54
2022/12/08 11:41:35;;;;;;;20.33;12.75;;;7.80;88.70;;;;;;5012992;28;20488;-53
2022/12/08 11:44:27;;;;;;;20.25;12.23;;;8.00;87.50;;;;;;5016401;28;20041;-53
2022/12/08 11:47:05;;;;;;;19.75;12.23;;;8.20;85.10;;;;;;5013013;28;20462;-53
2022/12/08 11:49:38;;;;;;;19.70;12.27;;;8.30;83.30;;;;;;5016418;28;20160;-54
2022/12/08 11:52:19;;;;;;;16.33;11.15;;;8.40;79.30;;;;;;5013446;28;20284;-53
2022/12/08 11:55:03;;;;;;;15.70;10.40;;;8.40;79.30;;;;;;5017195;28;20492;-53
2022/12/08 11:57:30;;;;;;;16.65;11.05;;;8.40;80.30;;;;;;5013291;28;20132;-51
2022/12/08 11:59:59;;;;;;;15.60;10.43;;;8.40;79.20;;;;;;5011892;28;20041;-51
2022/12/08 12:02:29;;;;;;;17.58;11.23;;;8.30;77.80;;;;;;5014481;28;20067;-52
2022/12/08 12:05:03;;;;;;;20.75;11.27;;;8.30;80.20;;;;;;5015671;28;20068;-55
2022/12/08 12:07:58;;;;;;;17.00;10.32;;;8.10;77.20;;;;;;5015054;28;20178;-54
2022/12/08 12:10:45;;;;;;;16.90;10.82;;;7.80;80.50;;;;;;5011998;28;20461;-54
2022/12/08 12:13:27;;;;;;;19.35;12.80;;;7.90;80.60;;;;;;5013059;28;20377;-52
2022/12/08 12:16:29;;;;;;;18.23;11.27;;;8.00;79.60;;;;;;5011769;28;20288;-53
2022/12/08 12:19:04;;;;;;;16.23;10.98;;;8.00;80.00;;;;;;5014539;28;20049;-54
2022/12/08 12:21:37;;;;;;;19.52;11.27;;;8.10;82.30;;;;;;5015369;28;20130;-54
2022/12/08 12:24:15;;;;;;;16.92;10.18;;;7.90;77.00;;;;;;5047309;28;20110;-51
2022/12/08 12:27:14;;;;;;;16.25;11.15;;;7.80;78.70;;;;;;5014817;28;20126;-53
2022/12/08 12:29:49;;;;;;;18.55;10.35;;;7.80;82.10;;;;;;5012320;28;20363;-52
2022/12/08 12:32:22;;;;;;;16.25;11.00;;;7.70;78.70;;;;;;5013417;28;20329;-51
2022/12/08 12:34:56;;;;;;;15.38;9.98;;;7.70;80.50;;;;;;5015387;28;20303;-53
2022/12/08 12:37:40;;;;;;;17.30;11.10;;;7.60;81.50;;;;;;5013217;28;20056;-53
2022/12/08 12:40:38;;;;;;;17.17;11.30;;;7.60;80.90;;;;;;5022494;28;20042;-51
2022/12/08 12:43:04;;;;;;;17.52;11.48;;;7.50;79.00;;;;;;5013948;28;20071;-54
2022/12/08 12:45:32;;;;;;;16.50;10.70;;;7.40;81.80;;;;;;5013469;28;20215;-53
2022/12/08 12:47:59;;;;;;;17.40;10.90;;;7.50;80.50;;;;;;5015927;28;20041;-54
2022/12/08 12:50:33;;;;;;;13.52;9.25;;;7.60;80.90;;;;;;5012511;28;20306;-54
2022/12/08 12:53:02;;;;;;;18.25;9.77;;;7.70;81.80;;;;;;5015321;28;20053;-53
2022/12/08 12:55:58;;;;;;;16.10;9.65;;;7.70;81.20;;;;;;5013766;28;20042;-51
2022/12/08 12:58:28;;;;;;;13.73;9.70;;;7.80;82.30;;;;;;5014562;28;20444;-52
2022/12/08 13:01:10;;;;;;;15.60;9.95;;;7.80;79.90;;;;;;5013626;28;20361;-50
2022/12/08 13:03:40;;;;;;;16.67;10.38;;;7.80;79.80;;;;;;5015187;28;20041;-53
2022/12/08 13:06:11;;;;;;;20.13;11.93;;;7.90;78.10;;;;;;5013545;28;20072;-53
2022/12/08 13:08:49;;;;;;;17.60;9.68;;;7.90;77.10;;;;;;5014942;28;20045;-52
2022/12/08 13:11:17;;;;;;;14.38;9.45;;;8.00;79.80;;;;;;5011881;28;20127;-54
2022/12/08 13:14:03;;;;;;;15.90;10.13;;;8.10;76.40;;;;;;5014068;28;20041;-53
2022/12/08 13:16:37;;;;;;;16.23;11.10;;;8.20;77.30;;;;;;5013677;28;20134;-53
2022/12/08 13:19:11;;;;;;;16.30;10.98;;;8.30;76.10;;;;;;5027611;28;20400;-54
2022/12/08 13:21:39;;;;;;;14.60;9.93;;;8.40;77.10;;;;;;5012403;28;20053;-54